< < Back
Terminal Aerodrome Forecast


Current Version              Previous Versions:   1  2  3  4  5  6  7  8  9  

Terminal Aerodrome Forecast

842
FTUS42 KGSP 181740
TAFAND
TAF
KAND 181740Z 1818/1918 15003KT P6SM BKN080
     FM182100 23005KT P6SM SCT080
     FM190300 29003KT P6SM FEW250
     FM191500 06006KT P6SM SCT250=

Latest METAR

910
SAUS70 KWBC 182200 RRD
MTRAND
METAR KAND 182156Z AUTO 21004KT 10SM OVC060 13/M01 A3007 RMK AO2 SLP184
T01281006


USA.gov is the U.S. government's official web portal to all federal, state and local government web resources and services.